Liberty, Idaho
Current Conditions -  °F | °C
As of 1:35 PM on Monday 24 Nov 2014 (Local Time) from KAFO Reporting Station
Scattered Clouds Scattered Clouds  
Wind Chill: 23°   Ceiling: Unl
Heat Index: 30°   Visibility: 10mi
Dew Point: 18°   Wind: 7mph
Humidity: 60%   Direction: 350°N
Pressure: 30.27"   Gusts: 12mph
Location:  42.3329°N, 111.271°W
Report Text: KAFO 242035Z AUTO 35006G10KT 10SM SCT031 SCT038 M01/M08 A3027 RMK AO2
Loading
Personal Weather Stations






























Interactive Weather Map New forecast layout! Learn more

10-Day Weather Forecast

Advertisements
Track Severe Weather on mobile